createdAt,value
2022-08-09T00:00:11.334Z,2.08
2022-08-09T00:02:42.786Z,2.22
2022-08-09T00:06:15.822Z,1.73
2022-08-09T00:08:02.409Z,1.77
2022-08-09T00:10:29.030Z,2.10
2022-08-09T00:12:56.970Z,1.70
2022-08-09T00:15:26.496Z,1.70
2022-08-09T00:18:05.068Z,1.60
2022-08-09T00:20:41.428Z,1.77
2022-08-09T00:23:57.368Z,1.88
2022-08-09T00:26:05.165Z,2.00
2022-08-09T00:28:32.330Z,1.88
2022-08-09T00:31:50.439Z,2.00
2022-08-09T00:33:50.853Z,1.77
2022-08-09T00:36:18.520Z,1.77
2022-08-09T00:38:45.304Z,1.83
2022-08-09T00:44:10.305Z,2.33
2022-08-09T00:44:16.199Z,2.08
2022-08-09T00:46:56.572Z,2.70
2022-08-09T00:49:28.237Z,2.75
2022-08-09T00:51:57.300Z,2.70
2022-08-09T00:54:31.595Z,2.00
2022-08-09T00:57:02.461Z,2.50
2022-08-09T00:59:41.123Z,2.30
2022-08-09T01:02:09.215Z,2.40
2022-08-09T01:04:49.429Z,2.30
2022-08-09T01:07:38.170Z,2.40
2022-08-09T01:10:29.008Z,2.10
2022-08-09T01:13:04.663Z,2.55
2022-08-09T01:15:43.417Z,2.15
2022-08-09T01:18:29.834Z,1.95
2022-08-09T01:21:41.264Z,2.60
2022-08-09T01:24:36.474Z,2.22
2022-08-09T01:27:15.208Z,2.25
2022-08-09T01:29:55.148Z,2.17
2022-08-09T01:32:33.779Z,2.10
2022-08-09T01:35:06.894Z,2.33
2022-08-09T01:38:08.393Z,2.08
2022-08-09T01:40:35.567Z,2.00
2022-08-09T01:43:05.184Z,2.38
2022-08-09T01:45:34.395Z,2.05
2022-08-09T01:48:12.541Z,2.17
2022-08-09T01:50:48.445Z,2.53
2022-08-09T01:53:19.304Z,2.38
2022-08-09T01:55:48.174Z,2.20
2022-08-09T01:58:16.560Z,2.30
2022-08-09T02:00:46.237Z,2.38
2022-08-09T02:03:19.383Z,2.22
2022-08-09T02:06:03.861Z,2.70
2022-08-09T02:08:57.948Z,2.40
2022-08-09T02:11:23.708Z,2.22
2022-08-09T02:13:55.290Z,2.55
2022-08-09T02:16:53.055Z,2.33
2022-08-09T02:19:22.522Z,2.72
2022-08-09T02:21:55.736Z,2.10
2022-08-09T02:24:26.833Z,2.50
2022-08-09T02:26:58.723Z,2.42
2022-08-09T02:29:31.346Z,1.98
2022-08-09T02:32:03.679Z,2.30
2022-08-09T02:34:41.695Z,2.60
2022-08-09T02:37:24.097Z,2.40
2022-08-09T02:40:03.341Z,2.30
2022-08-09T02:42:34.872Z,2.72
2022-08-09T02:45:07.673Z,2.33
2022-08-09T02:47:58.010Z,2.80
2022-08-09T02:50:53.086Z,2.38
2022-08-09T02:53:34.847Z,2.45
2022-08-09T02:56:04.316Z,2.20
2022-08-09T03:01:11.175Z,2.35
2022-08-09T03:04:12.493Z,2.60
2022-08-09T03:06:31.068Z,2.45
2022-08-09T03:09:00.710Z,2.25
2022-08-09T03:11:29.917Z,2.35
2022-08-09T03:14:16.742Z,2.78
2022-08-09T03:16:47.736Z,2.97
2022-08-09T03:19:58.054Z,2.58
2022-08-09T03:22:06.078Z,2.60
2022-08-09T03:24:52.317Z,2.70
2022-08-09T03:27:21.467Z,2.60
2022-08-09T03:29:58.075Z,2.42
2022-08-09T03:32:29.967Z,2.92
2022-08-09T03:34:58.077Z,2.90
2022-08-09T03:37:55.732Z,2.80
2022-08-09T03:40:13.030Z,2.65
2022-08-09T03:45:10.863Z,2.67
2022-08-09T03:47:40.010Z,2.33
2022-08-09T03:50:10.860Z,3.30
2022-08-09T03:52:40.523Z,2.78
2022-08-09T03:55:10.708Z,3.00
2022-08-09T03:57:44.723Z,3.05
2022-08-09T04:00:20.663Z,3.33
2022-08-09T04:02:52.746Z,3.17
2022-08-09T04:05:27.843Z,3.13
2022-08-09T04:07:57.241Z,2.90
2022-08-09T04:10:28.917Z,3.25
2022-08-09T04:13:01.239Z,3.58
2022-08-09T04:16:17.258Z,3.33
2022-08-09T04:18:19.360Z,3.58
2022-08-09T04:20:48.066Z,3.08
2022-08-09T04:23:16.773Z,3.45
2022-08-09T04:25:44.985Z,3.50
2022-08-09T04:28:34.121Z,3.30
2022-08-09T04:31:05.861Z,3.50
2022-08-09T04:33:47.674Z,3.72
2022-08-09T04:36:25.495Z,3.53
2022-08-09T04:38:53.969Z,3.58
2022-08-09T04:41:23.303Z,3.47
2022-08-09T04:44:06.360Z,3.40
2022-08-09T04:46:59.062Z,3.55
2022-08-09T04:49:40.923Z,3.53
2022-08-09T04:52:11.002Z,3.47
2022-08-09T04:54:37.840Z,3.80
2022-08-09T04:57:04.641Z,3.70
2022-08-09T04:59:35.849Z,3.78
2022-08-09T05:02:03.221Z,3.83
2022-08-09T05:04:31.015Z,4.28
2022-08-09T05:06:58.082Z,4.53
2022-08-09T05:09:24.697Z,3.75
2022-08-09T05:11:51.513Z,3.55
2022-08-09T05:14:18.531Z,3.95
2022-08-09T05:16:58.785Z,4.13
2022-08-09T05:19:31.715Z,4.30
2022-08-09T05:23:50.409Z,4.40
2022-08-09T05:25:01.051Z,4.40
2022-08-09T05:27:29.182Z,4.35
2022-08-09T05:29:57.644Z,4.18
2022-08-09T05:32:25.711Z,4.13
2022-08-09T05:34:52.236Z,4.07
2022-08-09T05:37:18.753Z,4.22
2022-08-09T05:39:45.370Z,4.53
2022-08-09T05:42:17.552Z,4.97
2022-08-09T05:44:52.603Z,4.28
2022-08-09T05:47:21.697Z,4.60
2022-08-09T05:50:31.205Z,4.72
2022-08-09T05:52:38.636Z,4.43
2022-08-09T05:57:55.671Z,4.30
2022-08-09T06:00:22.830Z,5.63
2022-08-09T06:02:54.346Z,6.70
2022-08-09T06:05:50.653Z,4.72
2022-08-09T06:08:11.148Z,4.60
2022-08-09T06:10:38.265Z,4.32
2022-08-09T06:13:12.366Z,4.68
2022-08-09T06:15:46.692Z,4.70
2022-08-09T06:18:14.085Z,4.82
2022-08-09T06:20:42.743Z,4.40
2022-08-09T06:23:12.073Z,4.57
2022-08-09T06:25:42.107Z,4.30
2022-08-09T06:28:10.080Z,5.05
2022-08-09T06:30:36.902Z,4.43
2022-08-09T06:33:41.064Z,4.53
2022-08-09T06:35:56.927Z,4.63
2022-08-09T06:38:32.201Z,4.32
2022-08-09T06:41:04.857Z,4.43
2022-08-09T06:43:46.201Z,4.72
2022-08-09T06:46:39.140Z,5.37
2022-08-09T06:49:00.402Z,4.60
2022-08-09T06:51:27.190Z,5.05
2022-08-09T06:53:55.116Z,4.45
2022-08-09T06:56:21.649Z,4.35
2022-08-09T07:00:51.346Z,4.90
2022-08-09T07:01:54.166Z,4.95
2022-08-09T07:04:24.417Z,5.55
2022-08-09T07:06:53.077Z,5.18
2022-08-09T07:09:55.093Z,4.43
2022-08-09T07:12:06.991Z,4.53
2022-08-09T07:14:44.335Z,5.07
2022-08-09T07:17:11.382Z,4.53
2022-08-09T07:19:38.660Z,4.75
2022-08-09T07:22:05.583Z,4.60
2022-08-09T07:24:39.750Z,4.93
2022-08-09T07:27:21.071Z,5.50
2022-08-09T07:29:56.785Z,4.15
2022-08-09T07:32:23.895Z,5.03
2022-08-09T07:35:02.643Z,5.57
2022-08-09T07:37:43.151Z,4.70
2022-08-09T07:40:14.361Z,4.43
2022-08-09T07:42:50.732Z,4.30
2022-08-09T07:45:40.378Z,4.47
2022-08-09T07:48:22.621Z,4.03
2022-08-09T07:51:10.288Z,3.90
2022-08-09T07:56:33.217Z,3.05
2022-08-09T07:58:59.858Z,3.50
2022-08-09T08:01:32.987Z,3.20
2022-08-09T08:04:03.913Z,3.13
2022-08-09T08:06:37.623Z,3.05
2022-08-09T08:09:39.791Z,3.15
2022-08-09T08:12:27.607Z,3.78
2022-08-09T08:14:55.712Z,3.53
2022-08-09T08:17:35.489Z,3.28
2022-08-09T08:20:12.686Z,2.50
2022-08-09T08:22:40.640Z,2.40
2022-08-09T08:25:09.391Z,2.60
2022-08-09T08:27:43.128Z,3.38
2022-08-09T08:30:11.277Z,2.60
2022-08-09T08:32:52.304Z,2.60
2022-08-09T08:35:22.489Z,2.35
2022-08-09T08:38:02.055Z,2.60
2022-08-09T08:40:32.584Z,2.40
2022-08-09T08:43:01.244Z,2.30
2022-08-09T08:45:37.145Z,3.00
2022-08-09T08:48:05.737Z,3.08
2022-08-09T08:50:32.905Z,2.70
2022-08-09T08:53:02.376Z,2.50
2022-08-09T08:55:32.231Z,2.35
2022-08-09T08:57:59.184Z,2.80
2022-08-09T09:00:34.233Z,2.40
2022-08-09T09:03:11.257Z,2.42
2022-08-09T09:05:58.415Z,2.45
2022-08-09T09:08:37.788Z,2.85
2022-08-09T09:11:07.591Z,2.33
2022-08-09T09:13:54.935Z,2.60
2022-08-09T09:16:30.341Z,2.53
2022-08-09T09:19:15.743Z,2.80
2022-08-09T09:22:04.216Z,3.25
2022-08-09T09:24:44.841Z,2.80
2022-08-09T09:28:03.498Z,2.50
2022-08-09T09:30:39.798Z,3.33
2022-08-09T09:33:16.948Z,2.40
2022-08-09T09:36:11.746Z,2.85
2022-08-09T09:38:56.804Z,2.97
2022-08-09T09:41:24.059Z,2.47
2022-08-09T09:44:13.444Z,2.72
2022-08-09T09:46:50.365Z,2.67
2022-08-09T09:49:32.299Z,3.22
2022-08-09T09:52:16.414Z,2.67
2022-08-09T09:55:23.734Z,2.60
2022-08-09T09:58:16.922Z,2.78
2022-08-09T10:01:30.951Z,3.00
2022-08-09T10:04:08.876Z,2.28
2022-08-09T10:06:43.452Z,2.40
2022-08-09T10:09:22.181Z,2.90
2022-08-09T10:12:14.508Z,3.40
2022-08-09T10:14:49.342Z,2.90
2022-08-09T10:17:39.887Z,3.08
2022-08-09T10:20:27.684Z,2.33
2022-08-09T10:23:16.903Z,2.50
2022-08-09T10:26:06.218Z,2.83
2022-08-09T10:28:33.989Z,3.20
2022-08-09T10:34:09.868Z,3.20
2022-08-09T10:36:35.390Z,3.05
2022-08-09T10:39:02.295Z,3.53
2022-08-09T10:41:28.886Z,2.88
2022-08-09T10:43:59.466Z,2.70
2022-08-09T10:46:55.274Z,2.60
2022-08-09T10:49:51.270Z,2.60
2022-08-09T10:52:22.972Z,2.55
2022-08-09T10:54:53.640Z,2.78
2022-08-09T10:57:20.391Z,2.50
2022-08-09T10:59:57.754Z,2.42
2022-08-09T11:03:11.853Z,2.83
2022-08-09T11:05:29.824Z,2.97
2022-08-09T11:07:59.478Z,2.78
2022-08-09T11:10:56.077Z,2.80
2022-08-09T11:13:50.660Z,2.47
2022-08-09T11:16:35.594Z,2.58
2022-08-09T11:19:07.830Z,3.15
2022-08-09T11:22:05.050Z,2.90
2022-08-09T11:25:02.118Z,2.90
2022-08-09T11:28:05.324Z,3.08
2022-08-09T11:30:33.306Z,2.72
2022-08-09T11:33:16.704Z,2.67
2022-08-09T11:35:57.914Z,2.70
2022-08-09T11:38:34.007Z,2.50
2022-08-09T11:41:37.905Z,2.55
2022-08-09T11:44:05.335Z,2.40
2022-08-09T11:46:54.618Z,2.80
2022-08-09T11:50:55.698Z,2.88
2022-08-09T11:53:20.959Z,2.80
2022-08-09T11:55:52.596Z,2.78
2022-08-09T11:58:30.420Z,2.83
2022-08-09T12:01:08.319Z,2.78
2022-08-09T12:03:56.819Z,3.03
2022-08-09T12:06:32.912Z,2.60
2022-08-09T12:09:05.892Z,2.55
2022-08-09T12:12:02.183Z,2.60
2022-08-09T12:14:40.499Z,2.83
2022-08-09T12:17:23.356Z,2.78
2022-08-09T12:20:12.329Z,2.60
2022-08-09T12:22:44.314Z,3.28
2022-08-09T12:25:19.701Z,2.60
2022-08-09T12:29:11.817Z,2.50
2022-08-09T12:31:11.293Z,2.83
2022-08-09T12:34:01.012Z,2.60
2022-08-09T12:36:33.844Z,2.88
2022-08-09T12:39:01.452Z,2.47
2022-08-09T12:41:38.954Z,2.85
2022-08-09T12:44:09.892Z,2.47
2022-08-09T12:46:49.046Z,2.47
2022-08-09T12:49:17.317Z,2.60
2022-08-09T12:52:02.371Z,2.85
2022-08-09T12:55:03.270Z,2.70
2022-08-09T12:57:42.927Z,2.33
2022-08-09T13:00:32.450Z,2.75
2022-08-09T13:03:02.455Z,2.80
2022-08-09T13:05:51.501Z,2.50
2022-08-09T13:08:40.266Z,2.53
2022-08-09T13:11:23.053Z,3.05
2022-08-09T13:14:37.944Z,2.78
2022-08-09T13:16:53.602Z,3.92
2022-08-09T13:20:10.276Z,2.42
2022-08-09T13:22:36.588Z,2.58
2022-08-09T13:25:07.350Z,2.60
2022-08-09T13:27:39.901Z,2.65
2022-08-09T13:30:49.173Z,3.10
2022-08-09T13:33:06.988Z,2.28
2022-08-09T13:36:39.552Z,2.60
2022-08-09T13:38:55.996Z,2.35
2022-08-09T13:41:56.661Z,2.50
2022-08-09T13:43:58.577Z,2.20
2022-08-09T13:47:16.758Z,2.45
2022-08-09T13:49:17.969Z,2.65
2022-08-09T13:52:00.535Z,2.03
2022-08-09T13:54:27.218Z,2.20
2022-08-09T13:56:58.842Z,2.38
2022-08-09T13:59:25.614Z,2.50
2022-08-09T14:02:01.976Z,2.30
2022-08-09T14:04:29.199Z,1.95
2022-08-09T14:07:00.775Z,2.28
2022-08-09T14:09:30.286Z,3.30
2022-08-09T14:12:06.810Z,2.20
2022-08-09T14:14:43.941Z,2.17
2022-08-09T14:17:12.996Z,2.13
2022-08-09T14:19:43.431Z,2.63
2022-08-09T14:22:11.410Z,2.25
2022-08-09T14:24:39.679Z,1.80
2022-08-09T14:27:20.530Z,2.00
2022-08-09T14:30:34.592Z,1.90
2022-08-09T14:32:34.415Z,2.70
2022-08-09T14:35:05.842Z,2.05
2022-08-09T14:38:01.330Z,2.35
2022-08-09T14:40:19.134Z,2.40
2022-08-09T14:43:05.526Z,2.08
2022-08-09T14:47:01.153Z,2.42
2022-08-09T14:48:18.522Z,2.50
2022-08-09T14:50:45.717Z,2.15
2022-08-09T14:53:13.844Z,2.20
2022-08-09T14:55:42.243Z,2.42
2022-08-09T14:58:14.743Z,2.03
2022-08-09T15:00:42.479Z,1.90
2022-08-09T15:03:20.193Z,2.30
2022-08-09T15:05:51.278Z,2.25
2022-08-09T15:08:24.832Z,2.58
2022-08-09T15:11:00.996Z,2.50
2022-08-09T15:13:56.784Z,2.20
2022-08-09T15:16:18.147Z,3.00
2022-08-09T15:18:44.659Z,2.25
2022-08-09T15:22:01.405Z,2.38
2022-08-09T15:24:12.454Z,1.83
2022-08-09T15:26:46.191Z,2.20
2022-08-09T15:30:48.534Z,2.30
2022-08-09T15:31:59.983Z,1.90
2022-08-09T15:34:34.418Z,2.35
2022-08-09T15:37:04.302Z,2.40
2022-08-09T15:39:44.021Z,2.05
2022-08-09T15:42:18.824Z,2.23
2022-08-09T15:44:45.792Z,2.13
2022-08-09T15:47:14.596Z,1.90
2022-08-09T15:50:03.523Z,2.00
2022-08-09T15:52:36.038Z,1.95
2022-08-09T15:55:05.142Z,2.00
2022-08-09T15:57:35.259Z,2.22
2022-08-09T16:00:24.528Z,2.00
2022-08-09T16:02:54.707Z,2.22
2022-08-09T16:05:26.489Z,1.67
2022-08-09T16:08:30.139Z,2.33
2022-08-09T16:10:59.348Z,1.90
2022-08-09T16:14:03.695Z,1.98
2022-08-09T16:16:18.349Z,2.30
2022-08-09T16:18:45.851Z,2.10
2022-08-09T16:21:17.673Z,2.35
2022-08-09T16:24:01.710Z,2.17
2022-08-09T16:26:33.572Z,2.22
2022-08-09T16:29:10.458Z,2.40
2022-08-09T16:32:18.884Z,2.17
2022-08-09T16:34:54.568Z,2.13
2022-08-09T16:37:21.549Z,1.92
2022-08-09T16:40:08.236Z,1.98
2022-08-09T16:42:35.385Z,1.95
2022-08-09T16:45:04.107Z,1.75
2022-08-09T16:48:39.644Z,2.17
2022-08-09T16:50:31.546Z,1.80
2022-08-09T16:53:01.440Z,2.10
2022-08-09T16:55:31.397Z,1.92
2022-08-09T16:58:16.655Z,1.80
2022-08-09T17:00:43.746Z,1.90
2022-08-09T17:03:21.292Z,2.05
2022-08-09T17:06:06.887Z,2.00
2022-08-09T17:08:44.380Z,1.90
2022-08-09T17:11:13.867Z,1.90
2022-08-09T17:13:41.996Z,2.25
2022-08-09T17:16:11.978Z,2.05
2022-08-09T17:18:38.919Z,2.00
2022-08-09T17:21:05.608Z,1.98
2022-08-09T17:24:21.101Z,1.90
2022-08-09T17:26:31.477Z,1.70
2022-08-09T17:29:04.424Z,1.90
2022-08-09T17:31:38.811Z,1.80
2022-08-09T17:34:06.653Z,2.00
2022-08-09T17:36:53.834Z,2.00
2022-08-09T17:39:24.993Z,1.77
2022-08-09T17:41:51.842Z,1.60
2022-08-09T17:44:38.852Z,1.95
2022-08-09T17:47:06.022Z,2.22
2022-08-09T17:49:37.393Z,1.92
2022-08-09T17:52:22.433Z,1.95
2022-08-09T17:54:49.696Z,2.00
2022-08-09T17:57:20.522Z,1.67
2022-08-09T18:00:05.570Z,1.95
2022-08-09T18:02:34.193Z,1.90
2022-08-09T18:05:00.786Z,2.15
2022-08-09T18:07:27.299Z,1.60
2022-08-09T18:10:05.080Z,2.38
2022-08-09T18:12:40.504Z,2.75
2022-08-09T18:15:18.992Z,1.70
2022-08-09T18:18:02.187Z,1.65
2022-08-09T18:20:54.896Z,1.88
2022-08-09T18:24:11.082Z,1.80
2022-08-09T18:26:04.031Z,1.75
2022-08-09T18:30:39.883Z,2.00
2022-08-09T18:31:24.701Z,1.50
2022-08-09T18:33:58.922Z,1.52
2022-08-09T18:36:32.369Z,1.52
2022-08-09T18:39:05.287Z,1.60
2022-08-09T18:41:34.723Z,1.75
2022-08-09T18:44:03.586Z,1.33
2022-08-09T18:46:47.038Z,1.38
2022-08-09T18:49:18.832Z,1.50
2022-08-09T18:51:54.889Z,1.60
2022-08-09T18:54:28.534Z,1.50
2022-08-09T18:57:05.802Z,1.45
2022-08-09T18:59:37.433Z,1.60
2022-08-09T19:02:16.062Z,1.60
2022-08-09T19:04:47.326Z,1.70
2022-08-09T19:07:16.286Z,1.73
2022-08-09T19:12:34.103Z,1.40
2022-08-09T19:15:06.391Z,1.10
2022-08-09T19:17:39.748Z,1.55
2022-08-09T19:20:21.559Z,1.30
2022-08-09T19:22:50.443Z,1.40
2022-08-09T19:25:41.319Z,1.48
2022-08-09T19:28:09.128Z,1.60
2022-08-09T19:30:44.654Z,1.40
2022-08-09T19:33:19.022Z,1.52
2022-08-09T19:35:58.035Z,1.40
2022-08-09T19:38:25.585Z,1.40
2022-08-09T19:40:53.785Z,1.40
2022-08-09T19:43:58.105Z,1.80
2022-08-09T19:46:08.556Z,1.40
2022-08-09T19:49:02.132Z,1.48
2022-08-09T19:51:27.916Z,1.48
2022-08-09T19:54:01.132Z,1.20
2022-08-09T19:56:29.465Z,1.27
2022-08-09T20:02:03.429Z,1.23
2022-08-09T20:04:37.340Z,1.40
2022-08-09T20:07:12.398Z,1.50
2022-08-09T20:09:47.749Z,1.33
2022-08-09T20:12:30.268Z,1.60
2022-08-09T20:15:04.674Z,1.40
2022-08-09T20:17:54.453Z,1.40
2022-08-09T20:20:22.119Z,1.30
2022-08-09T20:22:51.195Z,1.50
2022-08-09T20:25:23.084Z,1.60
2022-08-09T20:27:49.925Z,2.10
2022-08-09T20:30:18.047Z,1.58
2022-08-09T20:32:52.436Z,1.30
2022-08-09T20:35:20.288Z,2.10
2022-08-09T20:38:22.081Z,1.60
2022-08-09T20:40:33.526Z,1.33
2022-08-09T20:43:12.033Z,1.50
2022-08-09T20:45:57.440Z,1.20
2022-08-09T20:48:31.015Z,1.23
2022-08-09T20:50:59.224Z,1.70
2022-08-09T20:53:36.499Z,1.57
2022-08-09T20:56:19.840Z,1.70
2022-08-09T20:58:57.917Z,1.70
2022-08-09T21:01:34.379Z,1.40
2022-08-09T21:05:51.340Z,1.60
2022-08-09T21:06:58.329Z,3.47
2022-08-09T21:09:41.756Z,2.13
2022-08-09T21:14:41.614Z,1.45
2022-08-09T21:18:11.414Z,1.83
2022-08-09T21:20:18.832Z,1.30
2022-08-09T21:22:46.743Z,1.20
2022-08-09T21:25:38.077Z,1.42
2022-08-09T21:28:07.116Z,1.33
2022-08-09T21:30:37.055Z,1.77
2022-08-09T21:33:07.858Z,1.20
2022-08-09T21:35:40.555Z,1.60
2022-08-09T21:38:10.641Z,1.60
2022-08-09T21:40:39.047Z,1.33
2022-08-09T21:45:38.974Z,1.48
2022-08-09T21:48:07.182Z,1.55
2022-08-09T21:50:38.974Z,1.48
2022-08-09T21:53:19.993Z,1.55
2022-08-09T21:55:53.932Z,1.40
2022-08-09T21:58:20.433Z,1.45
2022-08-09T22:00:48.690Z,1.33
2022-08-09T22:03:19.771Z,1.70
2022-08-09T22:05:52.910Z,1.40
2022-08-09T22:11:49.138Z,1.48
2022-08-09T22:13:43.363Z,2.03
2022-08-09T22:16:10.949Z,1.50
2022-08-09T22:18:53.181Z,1.42
2022-08-09T22:21:24.381Z,1.85
2022-08-09T22:23:59.375Z,1.60
2022-08-09T22:26:35.276Z,1.55
2022-08-09T22:29:09.552Z,1.77
2022-08-09T22:31:53.155Z,1.55
2022-08-09T22:34:25.576Z,1.85
2022-08-09T22:36:53.903Z,2.00
2022-08-09T22:39:56.347Z,1.23
2022-08-09T22:42:20.991Z,1.60
2022-08-09T22:48:06.112Z,1.48
2022-08-09T22:48:10.228Z,1.52
2022-08-09T22:50:23.262Z,1.40
2022-08-09T22:52:54.838Z,1.83
2022-08-09T22:55:24.890Z,1.40
2022-08-09T22:58:00.598Z,1.50
2022-08-09T23:00:29.540Z,1.33
2022-08-09T23:02:56.323Z,1.60
2022-08-09T23:05:23.045Z,1.42
2022-08-09T23:10:50.410Z,1.48
2022-08-09T23:13:16.947Z,1.50
2022-08-09T23:15:43.433Z,1.65
2022-08-09T23:18:29.920Z,1.85
2022-08-09T23:20:56.460Z,1.67
2022-08-09T23:23:22.962Z,1.60
2022-08-09T23:25:49.444Z,1.60
2022-08-09T23:28:16.302Z,1.95
2022-08-09T23:30:51.633Z,1.70
2022-08-09T23:33:19.273Z,1.80
2022-08-09T23:36:05.188Z,1.70
2022-08-09T23:38:32.267Z,1.75
2022-08-09T23:40:58.791Z,1.65
2022-08-09T23:43:25.299Z,1.85
2022-08-09T23:45:51.816Z,1.45
2022-08-09T23:48:19.590Z,1.70
2022-08-09T23:50:46.199Z,1.75
2022-08-09T23:53:12.900Z,1.70
2022-08-09T23:55:46.198Z,1.65
2022-08-09T23:58:27.540Z,1.90
